To NAV CANADA Home Page Login to a new session Search on AWWS site Feedback and Comments Disclaimer Vers la page française équivalente Tips FAQ What's new on the site To the Forecasts and Observations / NOTAM section To "File a Flight Plan" website Publications and other links Update of the User's profile FIC Telephone Numbers My Weather Data Folder Route Weather Data Regional Weather Data Local Weather Data To the Forecasts and Observations / NOTAM section
Request Generated 10/17/2017 at 01:41:12 UTC . Weather information available at that time is displayed.

METAR/TAF

ISLAND LAKE/MB    

METAR CYIV 170100Z 30017G27KT 280V350 15SM FEW012 BKN035 11/04 A2951
RMK SC1SC6 SLP002 DENSITY ALT 900FT=
SPECI CYIV 170036Z 28015G21KT 7SM SCT012 BKN035 11/04 A2949 RMK
SC3SC4 SLP998 DENSITY ALT 1000FT=
METAR CYIV 170000Z CCA 27017G26KT 12SM -RA BKN012 BKN020 10/04 A2948
RMK SC7SC1 SC TR SLP994 DENSITY ALT 900FT=
METAR CYIV 170000Z 27017G26KT 12SM -RA BKN012 BKN020 10/04 A2948 RMK
SC7SC1 SC TR SLP994 DENSITY ALT 900FT=
SPECI CYIV 162349Z 27019G29KT 12SM -RA BKN012 BKN020 10/05 A2948 RMK
SC7SC1 SC TR PRESRR SLP995 DENSITY ALT 900FT=
METAR CYIV 162300Z 25013G21KT 15SM FEW015 SCT020 12/04 A2946 RMK
SF1SC3 SF TR SLP987 DENSITY ALT 1200FT=

TAF CYIV 170038Z 1701/1713 27015G25KT P6SM SCT012 BKN025 TEMPO
1701/1707 5SM -RA BR BKN008 OVC015
BECMG 1702/1704 31012KT
FM170700 31008KT P6SM SCT006 BKN012
RMK NXT FCST BY 170700Z=
Your time UTC time
Weather data provided by Environment Canada and NAV CANADA